• Join FlightAware (Why Join?)
  • Login
  • US Flag 
04:38AM EDT


 

Airport Tracker/Info


-or-


 

Live Flight TrackerFlight Track Log ✈ EWG3089 ✈ 21-Apr-2013 ✈ LOWW / VIE - EDDL / DUS

Flight Track Log - Related Links

Times and Time Zones

All times are in EDT time to prevent confusion due to time zone crossing. See the EWG3089 flight status page for this flight to view local times or setup timezone preferences in your user account.

Time Position Orientation Groundspeed Altitude Reporting Facility
EDT Latitude Longitude Course Direction KTS MPH feet Rate Location/Type
03:40AM 48.2824 16.1250 300° West  Level Estimated
03:41AM 48.3395 15.9761 300° West  Level Estimated
03:42AM 48.3963 15.8269 300° West  Level Estimated
03:43AM 48.4529 15.6774 300° West  Level Estimated
03:44AM 48.5093 15.5275 300° West  Level Estimated
03:45AM 48.5655 15.3772 300° West  Level Estimated
03:46AM 48.6216 15.2267 299° West  Level Estimated
03:47AM 48.6774 15.0758 299° West  Level Estimated
03:48AM 48.7330 14.9246 299° West  Level Estimated
03:49AM 48.7885 14.7730 299° West  Level Estimated
03:50AM 48.8437 14.6211 299° West  Level Estimated
03:51AM 48.8988 14.4689 299° West  Level Estimated
03:52AM 48.9536 14.3163 299° West  Level Estimated
03:53AM 49.0082 14.1634 299° West  Level Estimated
03:54AM 49.0627 14.0102 299° West  Level Estimated
03:55AM 49.1169 13.8566 298° West  Level Estimated
03:56AM 49.1709 13.7027 298° West  Level Estimated
03:57AM 49.2248 13.5484 298° West  Level Estimated
03:58AM 49.2784 13.3939 298° West  Level Estimated
03:59AM 49.3318 13.2389 298° West  Level Estimated
04:00AM 49.3850 13.0837 298° West  Level Estimated
04:01AM 49.4380 12.9281 298° West  Level Estimated
04:02AM 49.4908 12.7722 298° West  Level Estimated
04:03AM 49.5434 12.6159 297° West  Level Estimated
04:04AM 49.5957 12.4593 297° West  Level Estimated
04:05AM 49.6479 12.3024 297° West  Level Estimated
04:06AM 49.6998 12.1451 297° West  Level Estimated
04:07AM 49.7516 11.9875 297° West  Level Estimated
04:08AM 49.8031 11.8296 297° West  Level Estimated
04:09AM 49.8544 11.6713 297° West  Level Estimated
04:10AM 49.9055 11.5127 297° West  Level Estimated
04:11AM 49.9563 11.3538 296° West  Level Estimated
04:12AM 50.0070 11.1945 296° West  Level Estimated
04:13AM 50.0574 11.0349 296° West  Level Estimated
04:14AM 50.1076 10.8749 296° West  Level Estimated
04:15AM 50.1576 10.7146 296° West  Level Estimated
04:16AM 50.2074 10.5540 296° West  Level Estimated
04:17AM 50.2569 10.3930 296° West  Level Estimated
04:18AM 50.3063 10.2317 296° West  Level Estimated
04:19AM 50.3554 10.0701 296° West  Level Estimated
04:20AM 50.4043 9.9081 295° West  Level Estimated
04:21AM 50.4529 9.7459 295° West  Level Estimated
04:22AM 50.5013 9.5832 295° West  Level Estimated
04:23AM 50.5495 9.4203 295° West  Level Estimated
04:24AM 50.5975 9.2570 295° West  Level Estimated
04:25AM 50.6452 9.0934 295° West  Level Estimated
04:26AM 50.6927 8.9294 295° West  Level Estimated
04:27AM 50.7400 8.7651 295° West  Level Estimated
04:28AM 50.7871 8.6005 294° West  Level Estimated
04:29AM 50.8339 8.4355 294° West  Level Estimated
04:30AM 50.8805 8.2703 294° West  Level Estimated
04:31AM 50.9268 8.1046 294° West  Level Estimated
04:32AM 50.9730 7.9387 294° West  Level Estimated
04:33AM 51.0188 7.7724 294° West  Level Estimated
04:34AM 51.0645 7.6058 294° West  Level Estimated
04:35AM 51.1099 7.4389 293° West  Level Estimated
04:36AM 51.1551 7.2717 293° West  Level Estimated
04:37AM 51.2000 7.1041 293° West  Level Estimated
04:38AM 51.2447 6.9362 293° West  Level Estimated
04:39AM 51.2892 6.7679 293° West  Level Estimated
04:40AM 51.2895 6.7668 293° West  Level Estimated
04:41AM 51.2895 6.7668 46° Northeast  Level Estimated
04:42AM 51.2895 6.7668 314° West  Level Estimated
04:43AM 51.2895 6.7668 46° Northeast  Level Estimated
04:44AM 51.2895 6.7668 314° West  Level Estimated
04:45AM 51.2895 6.7668 46° Northeast  Level Estimated
04:46AM 51.2895 6.7668 314° West  Level Estimated
04:47AM 51.2895 6.7668 46° Northeast  Level Estimated
04:48AM 51.2895 6.7668 314° West  Level Estimated
04:49AM 51.2895 6.7668 46° Northeast  Level Estimated
04:50AM 51.2895 6.7668 314° West  Level Estimated
04:51AM 51.2895 6.7668 46° Northeast  Level Estimated
04:52AM 51.2895 6.7668 314° West  Level Estimated
04:53AM 51.2895 6.7668 46° Northeast  Level Estimated
04:54AM 51.2895 6.7668 314° West  Level Estimated